sensor_id;sensor_type;location;lat;lon;timestamp;P1;durP1;ratioP1;P2;durP2;ratioP2
9467;SDS011;4772;52.382;9.752;2023-02-01T00:00:59;22.53;;;4.00;;
9467;SDS011;4772;52.382;9.752;2023-02-01T00:03:25;18.87;;;4.00;;
9467;SDS011;4772;52.382;9.752;2023-02-01T00:05:57;15.80;;;4.30;;
9467;SDS011;4772;52.382;9.752;2023-02-01T00:08:23;20.93;;;3.93;;
9467;SDS011;4772;52.382;9.752;2023-02-01T00:10:57;18.13;;;4.23;;
9467;SDS011;4772;52.382;9.752;2023-02-01T00:13:23;25.23;;;5.20;;
9467;SDS011;4772;52.382;9.752;2023-02-01T00:15:49;21.23;;;4.80;;
9467;SDS011;4772;52.382;9.752;2023-02-01T00:18:15;22.33;;;4.10;;
9467;SDS011;4772;52.382;9.752;2023-02-01T00:20:45;19.07;;;3.93;;
9467;SDS011;4772;52.382;9.752;2023-02-01T00:23:11;22.60;;;3.80;;
9467;SDS011;4772;52.382;9.752;2023-02-01T00:25:37;15.10;;;3.07;;
9467;SDS011;4772;52.382;9.752;2023-02-01T00:28:04;17.23;;;3.60;;
9467;SDS011;4772;52.382;9.752;2023-02-01T00:30:30;25.30;;;4.13;;
9467;SDS011;4772;52.382;9.752;2023-02-01T00:32:56;17.37;;;4.30;;
9467;SDS011;4772;52.382;9.752;2023-02-01T00:35:22;15.90;;;4.17;;
9467;SDS011;4772;52.382;9.752;2023-02-01T00:37:48;20.47;;;4.03;;
9467;SDS011;4772;52.382;9.752;2023-02-01T00:40:14;16.57;;;4.27;;
9467;SDS011;4772;52.382;9.752;2023-02-01T00:42:40;18.03;;;4.33;;
9467;SDS011;4772;52.382;9.752;2023-02-01T00:45:06;18.43;;;4.00;;
9467;SDS011;4772;52.382;9.752;2023-02-01T00:47:32;18.30;;;3.87;;
9467;SDS011;4772;52.382;9.752;2023-02-01T00:49:58;18.50;;;3.73;;
9467;SDS011;4772;52.382;9.752;2023-02-01T00:52:24;18.10;;;3.73;;
9467;SDS011;4772;52.382;9.752;2023-02-01T00:54:50;20.87;;;4.40;;
9467;SDS011;4772;52.382;9.752;2023-02-01T00:57:16;23.13;;;4.10;;
9467;SDS011;4772;52.382;9.752;2023-02-01T00:59:42;17.97;;;4.30;;
9467;SDS011;4772;52.382;9.752;2023-02-01T01:02:08;14.87;;;3.63;;
9467;SDS011;4772;52.382;9.752;2023-02-01T01:04:35;20.17;;;3.93;;
9467;SDS011;4772;52.382;9.752;2023-02-01T01:07:02;18.90;;;4.00;;
9467;SDS011;4772;52.382;9.752;2023-02-01T01:09:28;23.30;;;4.60;;
9467;SDS011;4772;52.382;9.752;2023-02-01T01:11:54;21.43;;;4.40;;
9467;SDS011;4772;52.382;9.752;2023-02-01T01:14:20;17.33;;;4.37;;
9467;SDS011;4772;52.382;9.752;2023-02-01T01:16:46;14.37;;;3.63;;
9467;SDS011;4772;52.382;9.752;2023-02-01T01:19:12;24.60;;;4.33;;
9467;SDS011;4772;52.382;9.752;2023-02-01T01:21:38;19.53;;;4.40;;
9467;SDS011;4772;52.382;9.752;2023-02-01T01:24:04;20.67;;;4.57;;
9467;SDS011;4772;52.382;9.752;2023-02-01T01:26:30;18.20;;;4.50;;
9467;SDS011;4772;52.382;9.752;2023-02-01T01:28:57;18.83;;;4.33;;
9467;SDS011;4772;52.382;9.752;2023-02-01T01:31:23;16.00;;;4.23;;
9467;SDS011;4772;52.382;9.752;2023-02-01T01:33:50;17.10;;;4.30;;
9467;SDS011;4772;52.382;9.752;2023-02-01T01:36:17;21.70;;;4.67;;
9467;SDS011;4772;52.382;9.752;2023-02-01T01:38:43;21.83;;;4.03;;
9467;SDS011;4772;52.382;9.752;2023-02-01T01:41:11;14.27;;;4.23;;
9467;SDS011;4772;52.382;9.752;2023-02-01T01:43:45;19.30;;;3.80;;
9467;SDS011;4772;52.382;9.752;2023-02-01T01:46:15;25.17;;;4.67;;
9467;SDS011;4772;52.382;9.752;2023-02-01T01:48:41;21.07;;;4.13;;
9467;SDS011;4772;52.382;9.752;2023-02-01T01:51:08;17.70;;;4.20;;
9467;SDS011;4772;52.382;9.752;2023-02-01T01:53:42;20.03;;;4.07;;
9467;SDS011;4772;52.382;9.752;2023-02-01T01:56:09;18.83;;;4.17;;
9467;SDS011;4772;52.382;9.752;2023-02-01T01:58:35;18.67;;;3.90;;
9467;SDS011;4772;52.382;9.752;2023-02-01T02:01:03;20.43;;;4.13;;
9467;SDS011;4772;52.382;9.752;2023-02-01T02:05:57;22.10;;;3.60;;
9467;SDS011;4772;52.382;9.752;2023-02-01T02:08:24;19.13;;;4.70;;
9467;SDS011;4772;52.382;9.752;2023-02-01T02:10:51;20.30;;;4.27;;
9467;SDS011;4772;52.382;9.752;2023-02-01T02:13:33;15.00;;;3.77;;
9467;SDS011;4772;52.382;9.752;2023-02-01T02:21:17;22.43;;;3.97;;
9467;SDS011;4772;52.382;9.752;2023-02-01T02:23:55;16.93;;;3.93;;
9467;SDS011;4772;52.382;9.752;2023-02-01T02:39:06;18.37;;;3.90;;
9467;SDS011;4772;52.382;9.752;2023-02-01T02:44:43;16.93;;;3.60;;
9467;SDS011;4772;52.382;9.752;2023-02-01T02:47:44;27.43;;;5.10;;
9467;SDS011;4772;52.382;9.752;2023-02-01T02:53:04;18.07;;;3.77;;
9467;SDS011;4772;52.382;9.752;2023-02-01T02:55:52;16.10;;;4.17;;
9467;SDS011;4772;52.382;9.752;2023-02-01T02:58:36;18.63;;;3.63;;
9467;SDS011;4772;52.382;9.752;2023-02-01T03:01:21;18.77;;;3.43;;
9467;SDS011;4772;52.382;9.752;2023-02-01T03:04:05;17.00;;;3.93;;
9467;SDS011;4772;52.382;9.752;2023-02-01T03:06:39;22.63;;;4.40;;
9467;SDS011;4772;52.382;9.752;2023-02-01T03:09:06;14.57;;;3.37;;
9467;SDS011;4772;52.382;9.752;2023-02-01T03:11:34;21.57;;;4.03;;
9467;SDS011;4772;52.382;9.752;2023-02-01T03:14:20;18.43;;;3.80;;
9467;SDS011;4772;52.382;9.752;2023-02-01T03:16:49;14.67;;;4.17;;
9467;SDS011;4772;52.382;9.752;2023-02-01T03:19:21;20.80;;;3.97;;
9467;SDS011;4772;52.382;9.752;2023-02-01T03:21:48;20.87;;;4.03;;
9467;SDS011;4772;52.382;9.752;2023-02-01T03:24:17;23.77;;;4.33;;
9467;SDS011;4772;52.382;9.752;2023-02-01T03:26:47;19.20;;;3.90;;
9467;SDS011;4772;52.382;9.752;2023-02-01T03:29:16;17.30;;;4.37;;
9467;SDS011;4772;52.382;9.752;2023-02-01T03:31:43;16.90;;;3.53;;
9467;SDS011;4772;52.382;9.752;2023-02-01T03:34:10;19.80;;;3.93;;
9467;SDS011;4772;52.382;9.752;2023-02-01T03:36:48;19.20;;;4.03;;
9467;SDS011;4772;52.382;9.752;2023-02-01T03:39:20;12.63;;;3.77;;
9467;SDS011;4772;52.382;9.752;2023-02-01T03:41:48;16.87;;;4.23;;
9467;SDS011;4772;52.382;9.752;2023-02-01T03:44:17;14.33;;;3.70;;
9467;SDS011;4772;52.382;9.752;2023-02-01T03:46:55;20.03;;;4.50;;
9467;SDS011;4772;52.382;9.752;2023-02-01T03:50:05;14.63;;;3.70;;
9467;SDS011;4772;52.382;9.752;2023-02-01T03:52:13;18.53;;;4.10;;
9467;SDS011;4772;52.382;9.752;2023-02-01T03:54:39;13.77;;;3.67;;
9467;SDS011;4772;52.382;9.752;2023-02-01T03:57:07;16.87;;;4.00;;
9467;SDS011;4772;52.382;9.752;2023-02-01T03:59:33;22.53;;;4.20;;
9467;SDS011;4772;52.382;9.752;2023-02-01T04:01:59;19.20;;;4.47;;
9467;SDS011;4772;52.382;9.752;2023-02-01T04:04:25;16.30;;;3.90;;
9467;SDS011;4772;52.382;9.752;2023-02-01T04:06:51;15.47;;;3.67;;
9467;SDS011;4772;52.382;9.752;2023-02-01T04:09:17;18.93;;;4.40;;
9467;SDS011;4772;52.382;9.752;2023-02-01T04:11:43;23.83;;;4.37;;
9467;SDS011;4772;52.382;9.752;2023-02-01T04:14:09;19.33;;;3.93;;
9467;SDS011;4772;52.382;9.752;2023-02-01T04:16:35;15.60;;;3.97;;
9467;SDS011;4772;52.382;9.752;2023-02-01T04:19:01;19.43;;;4.13;;
9467;SDS011;4772;52.382;9.752;2023-02-01T04:21:27;20.37;;;4.27;;
9467;SDS011;4772;52.382;9.752;2023-02-01T04:23:54;19.03;;;4.77;;
9467;SDS011;4772;52.382;9.752;2023-02-01T04:26:20;18.23;;;4.43;;
9467;SDS011;4772;52.382;9.752;2023-02-01T04:28:46;17.77;;;3.93;;
9467;SDS011;4772;52.382;9.752;2023-02-01T04:31:13;21.60;;;4.67;;
9467;SDS011;4772;52.382;9.752;2023-02-01T04:33:39;18.37;;;4.53;;
9467;SDS011;4772;52.382;9.752;2023-02-01T04:36:05;18.93;;;4.50;;
9467;SDS011;4772;52.382;9.752;2023-02-01T04:38:31;23.50;;;3.90;;
9467;SDS011;4772;52.382;9.752;2023-02-01T04:40:57;14.10;;;4.23;;
9467;SDS011;4772;52.382;9.752;2023-02-01T04:43:23;20.13;;;4.63;;
9467;SDS011;4772;52.382;9.752;2023-02-01T04:45:50;22.27;;;4.70;;
9467;SDS011;4772;52.382;9.752;2023-02-01T04:48:16;17.27;;;4.80;;
9467;SDS011;4772;52.382;9.752;2023-02-01T04:50:43;14.97;;;4.07;;
9467;SDS011;4772;52.382;9.752;2023-02-01T04:53:12;17.23;;;4.27;;
9467;SDS011;4772;52.382;9.752;2023-02-01T04:55:38;16.87;;;3.60;;
9467;SDS011;4772;52.382;9.752;2023-02-01T04:58:04;19.33;;;5.00;;
9467;SDS011;4772;52.382;9.752;2023-02-01T05:00:30;16.60;;;4.13;;
9467;SDS011;4772;52.382;9.752;2023-02-01T05:02:56;16.43;;;4.23;;
9467;SDS011;4772;52.382;9.752;2023-02-01T05:05:22;23.30;;;5.00;;
9467;SDS011;4772;52.382;9.752;2023-02-01T05:07:48;17.30;;;4.00;;
9467;SDS011;4772;52.382;9.752;2023-02-01T05:10:14;17.03;;;4.77;;
9467;SDS011;4772;52.382;9.752;2023-02-01T05:12:40;23.60;;;4.97;;
9467;SDS011;4772;52.382;9.752;2023-02-01T05:15:24;19.70;;;4.53;;
9467;SDS011;4772;52.382;9.752;2023-02-01T05:17:50;22.77;;;4.70;;
9467;SDS011;4772;52.382;9.752;2023-02-01T05:20:16;19.57;;;4.90;;
9467;SDS011;4772;52.382;9.752;2023-02-01T05:22:42;18.17;;;4.30;;
9467;SDS011;4772;52.382;9.752;2023-02-01T05:25:08;14.73;;;4.33;;
9467;SDS011;4772;52.382;9.752;2023-02-01T05:27:34;20.30;;;4.73;;
9467;SDS011;4772;52.382;9.752;2023-02-01T05:30:01;16.57;;;4.50;;
9467;SDS011;4772;52.382;9.752;2023-02-01T05:32:27;19.67;;;4.83;;
9467;SDS011;4772;52.382;9.752;2023-02-01T05:34:53;19.77;;;5.10;;
9467;SDS011;4772;52.382;9.752;2023-02-01T05:37:19;17.33;;;4.43;;
9467;SDS011;4772;52.382;9.752;2023-02-01T05:39:45;20.20;;;4.70;;
9467;SDS011;4772;52.382;9.752;2023-02-01T05:42:11;17.10;;;4.17;;
9467;SDS011;4772;52.382;9.752;2023-02-01T05:44:37;17.13;;;4.40;;
9467;SDS011;4772;52.382;9.752;2023-02-01T05:47:03;19.47;;;4.47;;
9467;SDS011;4772;52.382;9.752;2023-02-01T05:49:29;18.73;;;4.70;;
9467;SDS011;4772;52.382;9.752;2023-02-01T05:51:55;14.57;;;4.30;;
9467;SDS011;4772;52.382;9.752;2023-02-01T05:54:21;16.67;;;4.33;;
9467;SDS011;4772;52.382;9.752;2023-02-01T05:56:47;21.43;;;4.73;;
9467;SDS011;4772;52.382;9.752;2023-02-01T05:59:13;18.73;;;4.63;;
9467;SDS011;4772;52.382;9.752;2023-02-01T06:01:39;14.93;;;4.20;;
9467;SDS011;4772;52.382;9.752;2023-02-01T06:04:05;15.17;;;4.30;;
9467;SDS011;4772;52.382;9.752;2023-02-01T06:06:31;17.70;;;4.03;;
9467;SDS011;4772;52.382;9.752;2023-02-01T06:08:57;10.93;;;4.07;;
9467;SDS011;4772;52.382;9.752;2023-02-01T06:11:23;13.53;;;4.30;;
9467;SDS011;4772;52.382;9.752;2023-02-01T06:13:49;11.57;;;3.97;;
9467;SDS011;4772;52.382;9.752;2023-02-01T06:16:15;18.03;;;4.10;;
9467;SDS011;4772;52.382;9.752;2023-02-01T06:18:41;15.87;;;4.30;;
9467;SDS011;4772;52.382;9.752;2023-02-01T06:21:07;16.37;;;3.67;;
9467;SDS011;4772;52.382;9.752;2023-02-01T06:23:33;14.47;;;3.73;;
9467;SDS011;4772;52.382;9.752;2023-02-01T06:26:04;17.33;;;3.43;;
9467;SDS011;4772;52.382;9.752;2023-02-01T06:28:31;15.70;;;4.43;;
9467;SDS011;4772;52.382;9.752;2023-02-01T06:30:57;13.13;;;3.57;;
9467;SDS011;4772;52.382;9.752;2023-02-01T06:33:24;15.43;;;3.47;;
9467;SDS011;4772;52.382;9.752;2023-02-01T06:35:56;13.00;;;4.03;;
9467;SDS011;4772;52.382;9.752;2023-02-01T06:38:22;13.70;;;3.40;;
9467;SDS011;4772;52.382;9.752;2023-02-01T06:40:52;21.27;;;4.10;;
9467;SDS011;4772;52.382;9.752;2023-02-01T06:43:18;10.90;;;3.20;;
9467;SDS011;4772;52.382;9.752;2023-02-01T06:45:44;10.77;;;3.50;;
9467;SDS011;4772;52.382;9.752;2023-02-01T06:48:10;19.97;;;5.70;;
9467;SDS011;4772;52.382;9.752;2023-02-01T06:50:36;10.77;;;3.33;;
9467;SDS011;4772;52.382;9.752;2023-02-01T06:53:02;9.80;;;3.13;;
9467;SDS011;4772;52.382;9.752;2023-02-01T06:55:28;11.07;;;3.33;;
9467;SDS011;4772;52.382;9.752;2023-02-01T06:57:54;15.30;;;4.10;;
9467;SDS011;4772;52.382;9.752;2023-02-01T07:00:21;11.30;;;3.70;;
9467;SDS011;4772;52.382;9.752;2023-02-01T07:02:47;14.67;;;3.67;;
9467;SDS011;4772;52.382;9.752;2023-02-01T07:05:13;14.07;;;3.93;;
9467;SDS011;4772;52.382;9.752;2023-02-01T07:07:39;12.90;;;3.70;;
9467;SDS011;4772;52.382;9.752;2023-02-01T07:10:05;12.63;;;3.67;;
9467;SDS011;4772;52.382;9.752;2023-02-01T07:12:31;15.57;;;3.60;;
9467;SDS011;4772;52.382;9.752;2023-02-01T07:14:57;12.37;;;3.53;;
9467;SDS011;4772;52.382;9.752;2023-02-01T07:17:23;14.03;;;3.63;;
9467;SDS011;4772;52.382;9.752;2023-02-01T07:19:49;15.80;;;3.90;;
9467;SDS011;4772;52.382;9.752;2023-02-01T07:22:18;14.20;;;3.97;;
9467;SDS011;4772;52.382;9.752;2023-02-01T07:24:44;11.60;;;3.80;;
9467;SDS011;4772;52.382;9.752;2023-02-01T07:27:10;18.87;;;4.13;;
9467;SDS011;4772;52.382;9.752;2023-02-01T07:29:36;12.37;;;3.53;;
9467;SDS011;4772;52.382;9.752;2023-02-01T07:32:02;16.57;;;4.50;;
9467;SDS011;4772;52.382;9.752;2023-02-01T07:34:28;19.53;;;4.20;;
9467;SDS011;4772;52.382;9.752;2023-02-01T07:36:55;14.40;;;4.03;;
9467;SDS011;4772;52.382;9.752;2023-02-01T07:39:21;17.17;;;4.07;;
9467;SDS011;4772;52.382;9.752;2023-02-01T07:41:47;16.17;;;3.90;;
9467;SDS011;4772;52.382;9.752;2023-02-01T07:44:13;12.93;;;4.30;;
9467;SDS011;4772;52.382;9.752;2023-02-01T07:46:39;15.47;;;4.03;;
9467;SDS011;4772;52.382;9.752;2023-02-01T07:49:05;17.87;;;4.03;;
9467;SDS011;4772;52.382;9.752;2023-02-01T07:51:31;15.03;;;4.13;;
9467;SDS011;4772;52.382;9.752;2023-02-01T07:53:57;21.23;;;4.93;;
9467;SDS011;4772;52.382;9.752;2023-02-01T07:56:23;15.07;;;3.87;;
9467;SDS011;4772;52.382;9.752;2023-02-01T07:58:50;17.37;;;4.17;;
9467;SDS011;4772;52.382;9.752;2023-02-01T08:01:17;13.87;;;4.00;;
9467;SDS011;4772;52.382;9.752;2023-02-01T08:03:47;11.67;;;3.43;;
9467;SDS011;4772;52.382;9.752;2023-02-01T08:06:13;15.23;;;4.43;;
9467;SDS011;4772;52.382;9.752;2023-02-01T08:08:39;14.80;;;3.93;;
9467;SDS011;4772;52.382;9.752;2023-02-01T08:11:05;11.33;;;3.30;;
9467;SDS011;4772;52.382;9.752;2023-02-01T08:13:34;19.27;;;4.00;;
9467;SDS011;4772;52.382;9.752;2023-02-01T08:16:04;13.43;;;4.03;;
9467;SDS011;4772;52.382;9.752;2023-02-01T08:18:31;21.73;;;4.60;;
9467;SDS011;4772;52.382;9.752;2023-02-01T08:20:57;16.83;;;3.93;;
9467;SDS011;4772;52.382;9.752;2023-02-01T08:23:23;12.43;;;3.57;;
9467;SDS011;4772;52.382;9.752;2023-02-01T08:25:49;14.03;;;3.80;;
9467;SDS011;4772;52.382;9.752;2023-02-01T08:28:15;18.60;;;6.83;;
9467;SDS011;4772;52.382;9.752;2023-02-01T08:30:41;19.00;;;4.40;;
9467;SDS011;4772;52.382;9.752;2023-02-01T08:33:07;14.27;;;3.50;;
9467;SDS011;4772;52.382;9.752;2023-02-01T08:35:37;14.50;;;4.23;;
9467;SDS011;4772;52.382;9.752;2023-02-01T08:38:03;19.27;;;4.13;;
9467;SDS011;4772;52.382;9.752;2023-02-01T08:40:29;17.43;;;4.13;;
9467;SDS011;4772;52.382;9.752;2023-02-01T08:42:55;21.07;;;4.20;;
9467;SDS011;4772;52.382;9.752;2023-02-01T08:45:22;12.47;;;3.40;;
9467;SDS011;4772;52.382;9.752;2023-02-01T08:47:49;18.87;;;3.87;;
9467;SDS011;4772;52.382;9.752;2023-02-01T08:50:15;16.07;;;3.70;;
9467;SDS011;4772;52.382;9.752;2023-02-01T08:52:41;17.37;;;4.60;;
9467;SDS011;4772;52.382;9.752;2023-02-01T08:55:08;17.07;;;3.90;;
9467;SDS011;4772;52.382;9.752;2023-02-01T08:57:34;15.80;;;3.87;;
9467;SDS011;4772;52.382;9.752;2023-02-01T09:00:00;16.50;;;3.90;;
9467;SDS011;4772;52.382;9.752;2023-02-01T09:02:26;15.63;;;3.73;;
9467;SDS011;4772;52.382;9.752;2023-02-01T09:04:52;21.30;;;4.30;;
9467;SDS011;4772;52.382;9.752;2023-02-01T09:07:18;12.83;;;3.33;;
9467;SDS011;4772;52.382;9.752;2023-02-01T09:09:45;13.87;;;3.60;;
9467;SDS011;4772;52.382;9.752;2023-02-01T09:12:11;14.87;;;4.17;;
9467;SDS011;4772;52.382;9.752;2023-02-01T09:14:37;14.30;;;3.30;;
9467;SDS011;4772;52.382;9.752;2023-02-01T09:17:03;12.67;;;3.70;;
9467;SDS011;4772;52.382;9.752;2023-02-01T09:19:30;14.53;;;3.87;;
9467;SDS011;4772;52.382;9.752;2023-02-01T09:21:56;17.07;;;3.87;;
9467;SDS011;4772;52.382;9.752;2023-02-01T09:24:22;12.83;;;3.30;;
9467;SDS011;4772;52.382;9.752;2023-02-01T09:26:48;10.83;;;3.33;;
9467;SDS011;4772;52.382;9.752;2023-02-01T09:29:14;14.33;;;3.53;;
9467;SDS011;4772;52.382;9.752;2023-02-01T09:31:40;12.90;;;3.23;;
9467;SDS011;4772;52.382;9.752;2023-02-01T09:34:06;14.00;;;2.90;;
9467;SDS011;4772;52.382;9.752;2023-02-01T09:36:33;13.90;;;3.37;;
9467;SDS011;4772;52.382;9.752;2023-02-01T09:38:59;16.20;;;3.67;;
9467;SDS011;4772;52.382;9.752;2023-02-01T09:44:16;13.53;;;3.07;;
9467;SDS011;4772;52.382;9.752;2023-02-01T09:46:43;17.87;;;4.17;;
9467;SDS011;4772;52.382;9.752;2023-02-01T09:49:15;12.33;;;3.13;;
9467;SDS011;4772;52.382;9.752;2023-02-01T09:51:43;15.90;;;3.67;;
9467;SDS011;4772;52.382;9.752;2023-02-01T09:54:12;12.63;;;2.87;;
9467;SDS011;4772;52.382;9.752;2023-02-01T09:56:49;11.30;;;3.30;;
9467;SDS011;4772;52.382;9.752;2023-02-01T10:01:50;11.20;;;3.70;;
9467;SDS011;4772;52.382;9.752;2023-02-01T10:04:16;13.30;;;3.47;;
9467;SDS011;4772;52.382;9.752;2023-02-01T10:09:16;11.53;;;3.17;;
9467;SDS011;4772;52.382;9.752;2023-02-01T10:29:34;14.90;;;3.60;;
9467;SDS011;4772;52.382;9.752;2023-02-01T10:32:02;17.80;;;3.13;;
9467;SDS011;4772;52.382;9.752;2023-02-01T10:34:30;14.90;;;4.40;;
9467;SDS011;4772;52.382;9.752;2023-02-01T10:39:23;14.73;;;3.90;;
9467;SDS011;4772;52.382;9.752;2023-02-01T10:41:49;12.47;;;3.30;;
9467;SDS011;4772;52.382;9.752;2023-02-01T10:44:17;14.67;;;3.47;;
9467;SDS011;4772;52.382;9.752;2023-02-01T10:46:43;13.57;;;3.03;;
9467;SDS011;4772;52.382;9.752;2023-02-01T10:50:11;14.00;;;3.73;;
9467;SDS011;4772;52.382;9.752;2023-02-01T10:52:12;12.33;;;3.80;;
9467;SDS011;4772;52.382;9.752;2023-02-01T10:54:39;11.37;;;3.17;;
9467;SDS011;4772;52.382;9.752;2023-02-01T10:57:07;15.33;;;3.47;;
9467;SDS011;4772;52.382;9.752;2023-02-01T10:59:34;10.57;;;3.10;;
9467;SDS011;4772;52.382;9.752;2023-02-01T11:02:02;12.43;;;3.53;;
9467;SDS011;4772;52.382;9.752;2023-02-01T11:04:33;10.57;;;3.03;;
9467;SDS011;4772;52.382;9.752;2023-02-01T11:07:15;14.33;;;3.37;;
9467;SDS011;4772;52.382;9.752;2023-02-01T11:09:42;17.00;;;3.67;;
9467;SDS011;4772;52.382;9.752;2023-02-01T11:14:48;12.27;;;3.50;;
9467;SDS011;4772;52.382;9.752;2023-02-01T11:19:45;11.97;;;3.33;;
9467;SDS011;4772;52.382;9.752;2023-02-01T11:22:12;12.10;;;3.03;;
9467;SDS011;4772;52.382;9.752;2023-02-01T11:24:38;9.53;;;2.87;;
9467;SDS011;4772;52.382;9.752;2023-02-01T11:27:12;11.23;;;3.23;;
9467;SDS011;4772;52.382;9.752;2023-02-01T11:29:40;10.43;;;3.50;;
9467;SDS011;4772;52.382;9.752;2023-02-01T11:32:07;13.73;;;3.90;;
9467;SDS011;4772;52.382;9.752;2023-02-01T11:34:50;11.33;;;3.13;;
9467;SDS011;4772;52.382;9.752;2023-02-01T11:37:21;12.83;;;3.13;;
9467;SDS011;4772;52.382;9.752;2023-02-01T11:39:58;13.50;;;3.33;;
9467;SDS011;4772;52.382;9.752;2023-02-01T11:42:25;10.60;;;3.57;;
9467;SDS011;4772;52.382;9.752;2023-02-01T11:44:52;19.57;;;3.60;;
9467;SDS011;4772;52.382;9.752;2023-02-01T11:47:39;13.80;;;3.40;;
9467;SDS011;4772;52.382;9.752;2023-02-01T11:50:17;12.60;;;3.07;;
9467;SDS011;4772;52.382;9.752;2023-02-01T11:52:48;9.87;;;2.80;;
9467;SDS011;4772;52.382;9.752;2023-02-01T11:57:57;11.40;;;3.90;;
9467;SDS011;4772;52.382;9.752;2023-02-01T12:16:36;10.33;;;3.23;;
9467;SDS011;4772;52.382;9.752;2023-02-01T12:19:11;11.17;;;3.07;;
9467;SDS011;4772;52.382;9.752;2023-02-01T12:21:54;11.70;;;3.50;;
9467;SDS011;4772;52.382;9.752;2023-02-01T12:24:30;11.23;;;3.07;;
9467;SDS011;4772;52.382;9.752;2023-02-01T12:27:04;13.53;;;3.10;;
9467;SDS011;4772;52.382;9.752;2023-02-01T12:34:51;9.13;;;3.10;;
9467;SDS011;4772;52.382;9.752;2023-02-01T12:37:41;13.73;;;3.17;;
9467;SDS011;4772;52.382;9.752;2023-02-01T12:40:18;11.60;;;2.73;;
9467;SDS011;4772;52.382;9.752;2023-02-01T12:42:56;13.03;;;4.00;;
9467;SDS011;4772;52.382;9.752;2023-02-01T12:45:46;7.87;;;2.87;;
9467;SDS011;4772;52.382;9.752;2023-02-01T12:48:28;6.63;;;3.30;;
9467;SDS011;4772;52.382;9.752;2023-02-01T12:50:56;8.50;;;3.37;;
9467;SDS011;4772;52.382;9.752;2023-02-01T12:56:18;10.67;;;3.00;;
9467;SDS011;4772;52.382;9.752;2023-02-01T12:58:48;13.30;;;2.87;;
9467;SDS011;4772;52.382;9.752;2023-02-01T13:03:50;6.77;;;2.50;;
9467;SDS011;4772;52.382;9.752;2023-02-01T13:06:26;7.23;;;2.70;;
9467;SDS011;4772;52.382;9.752;2023-02-01T13:08:57;8.67;;;2.33;;
9467;SDS011;4772;52.382;9.752;2023-02-01T13:11:34;8.43;;;3.10;;
9467;SDS011;4772;52.382;9.752;2023-02-01T13:16:27;8.40;;;3.73;;
9467;SDS011;4772;52.382;9.752;2023-02-01T13:18:59;7.13;;;3.70;;
9467;SDS011;4772;52.382;9.752;2023-02-01T13:21:27;14.63;;;2.80;;
9467;SDS011;4772;52.382;9.752;2023-02-01T13:23:55;8.97;;;2.47;;
9467;SDS011;4772;52.382;9.752;2023-02-01T13:26:21;5.80;;;2.53;;
9467;SDS011;4772;52.382;9.752;2023-02-01T13:28:51;9.13;;;2.90;;
9467;SDS011;4772;52.382;9.752;2023-02-01T13:31:27;10.73;;;2.80;;
9467;SDS011;4772;52.382;9.752;2023-02-01T13:36:56;3.17;;;1.67;;
9467;SDS011;4772;52.382;9.752;2023-02-01T13:39:35;2.50;;;1.20;;
9467;SDS011;4772;52.382;9.752;2023-02-01T13:42:05;2.47;;;1.30;;
9467;SDS011;4772;52.382;9.752;2023-02-01T13:44:38;2.30;;;1.17;;
9467;SDS011;4772;52.382;9.752;2023-02-01T13:47:11;1.77;;;1.20;;
9467;SDS011;4772;52.382;9.752;2023-02-01T13:49:38;3.27;;;1.30;;
9467;SDS011;4772;52.382;9.752;2023-02-01T13:52:06;1.40;;;1.13;;
9467;SDS011;4772;52.382;9.752;2023-02-01T13:54:38;2.37;;;1.30;;
9467;SDS011;4772;52.382;9.752;2023-02-01T13:57:06;2.23;;;1.20;;
9467;SDS011;4772;52.382;9.752;2023-02-01T14:04:50;4.13;;;1.60;;
9467;SDS011;4772;52.382;9.752;2023-02-01T14:07:17;2.87;;;1.33;;
9467;SDS011;4772;52.382;9.752;2023-02-01T14:09:43;2.90;;;1.70;;
9467;SDS011;4772;52.382;9.752;2023-02-01T14:14:59;3.77;;;2.00;;
9467;SDS011;4772;52.382;9.752;2023-02-01T14:17:40;2.73;;;1.60;;
9467;SDS011;4772;52.382;9.752;2023-02-01T14:22:51;4.30;;;1.50;;
9467;SDS011;4772;52.382;9.752;2023-02-01T14:25:25;2.40;;;1.57;;
9467;SDS011;4772;52.382;9.752;2023-02-01T14:27:57;3.10;;;1.80;;
9467;SDS011;4772;52.382;9.752;2023-02-01T14:30:23;4.23;;;1.43;;
9467;SDS011;4772;52.382;9.752;2023-02-01T14:32:49;1.70;;;1.43;;
9467;SDS011;4772;52.382;9.752;2023-02-01T14:35:24;2.93;;;1.50;;
9467;SDS011;4772;52.382;9.752;2023-02-01T14:37:51;2.73;;;1.40;;
9467;SDS011;4772;52.382;9.752;2023-02-01T14:40:23;3.37;;;2.17;;
9467;SDS011;4772;52.382;9.752;2023-02-01T14:42:51;4.23;;;1.43;;
9467;SDS011;4772;52.382;9.752;2023-02-01T14:47:53;1.30;;;1.13;;
9467;SDS011;4772;52.382;9.752;2023-02-01T14:55:42;6.07;;;2.30;;
9467;SDS011;4772;52.382;9.752;2023-02-01T14:58:56;3.00;;;1.40;;
9467;SDS011;4772;52.382;9.752;2023-02-01T15:00:56;4.57;;;1.60;;
9467;SDS011;4772;52.382;9.752;2023-02-01T15:05:54;3.60;;;1.70;;
9467;SDS011;4772;52.382;9.752;2023-02-01T15:08:24;2.43;;;1.60;;
9467;SDS011;4772;52.382;9.752;2023-02-01T15:10:51;3.80;;;1.80;;
9467;SDS011;4772;52.382;9.752;2023-02-01T15:13:19;2.40;;;1.43;;
9467;SDS011;4772;52.382;9.752;2023-02-01T15:15:45;4.47;;;1.60;;
9467;SDS011;4772;52.382;9.752;2023-02-01T15:18:14;5.43;;;1.80;;
9467;SDS011;4772;52.382;9.752;2023-02-01T15:20:42;5.17;;;1.60;;
9467;SDS011;4772;52.382;9.752;2023-02-01T15:23:16;3.47;;;1.33;;
9467;SDS011;4772;52.382;9.752;2023-02-01T15:25:44;4.97;;;1.60;;
9467;SDS011;4772;52.382;9.752;2023-02-01T15:28:14;5.53;;;1.83;;
9467;SDS011;4772;52.382;9.752;2023-02-01T15:30:50;5.87;;;1.70;;
9467;SDS011;4772;52.382;9.752;2023-02-01T15:33:17;7.17;;;2.07;;
9467;SDS011;4772;52.382;9.752;2023-02-01T15:44:04;7.57;;;2.10;;
9467;SDS011;4772;52.382;9.752;2023-02-01T15:46:21;5.23;;;2.07;;
9467;SDS011;4772;52.382;9.752;2023-02-01T15:48:48;5.47;;;1.90;;
9467;SDS011;4772;52.382;9.752;2023-02-01T15:51:19;5.67;;;1.90;;
9467;SDS011;4772;52.382;9.752;2023-02-01T15:53:46;8.83;;;2.13;;
9467;SDS011;4772;52.382;9.752;2023-02-01T15:56:14;7.53;;;1.90;;
9467;SDS011;4772;52.382;9.752;2023-02-01T15:58:41;8.63;;;2.60;;
9467;SDS011;4772;52.382;9.752;2023-02-01T16:01:10;13.33;;;2.53;;
9467;SDS011;4772;52.382;9.752;2023-02-01T16:03:39;8.17;;;2.63;;
9467;SDS011;4772;52.382;9.752;2023-02-01T16:06:49;10.23;;;2.47;;
9467;SDS011;4772;52.382;9.752;2023-02-01T16:08:59;5.37;;;1.90;;
9467;SDS011;4772;52.382;9.752;2023-02-01T16:11:27;7.20;;;2.37;;
9467;SDS011;4772;52.382;9.752;2023-02-01T16:13:55;6.23;;;2.33;;
9467;SDS011;4772;52.382;9.752;2023-02-01T16:16:21;3.43;;;1.80;;
9467;SDS011;4772;52.382;9.752;2023-02-01T16:18:47;8.50;;;2.50;;
9467;SDS011;4772;52.382;9.752;2023-02-01T16:21:13;8.97;;;2.83;;
9467;SDS011;4772;52.382;9.752;2023-02-01T16:23:39;8.97;;;2.80;;
9467;SDS011;4772;52.382;9.752;2023-02-01T16:26:05;7.37;;;2.90;;
9467;SDS011;4772;52.382;9.752;2023-02-01T16:28:31;5.73;;;2.93;;
9467;SDS011;4772;52.382;9.752;2023-02-01T16:30:58;9.43;;;3.33;;
9467;SDS011;4772;52.382;9.752;2023-02-01T16:33:24;7.23;;;2.80;;
9467;SDS011;4772;52.382;9.752;2023-02-01T16:35:50;11.70;;;3.43;;
9467;SDS011;4772;52.382;9.752;2023-02-01T16:38:17;9.10;;;3.30;;
9467;SDS011;4772;52.382;9.752;2023-02-01T16:40:46;8.67;;;3.00;;
9467;SDS011;4772;52.382;9.752;2023-02-01T16:43:13;7.00;;;2.93;;
9467;SDS011;4772;52.382;9.752;2023-02-01T16:45:40;11.00;;;3.17;;
9467;SDS011;4772;52.382;9.752;2023-02-01T16:48:10;9.27;;;3.00;;
9467;SDS011;4772;52.382;9.752;2023-02-01T16:50:39;10.07;;;2.73;;
9467;SDS011;4772;52.382;9.752;2023-02-01T16:53:05;9.70;;;2.57;;
9467;SDS011;4772;52.382;9.752;2023-02-01T16:55:31;13.53;;;5.33;;
9467;SDS011;4772;52.382;9.752;2023-02-01T16:57:57;11.80;;;2.83;;
9467;SDS011;4772;52.382;9.752;2023-02-01T17:00:23;12.17;;;2.97;;
9467;SDS011;4772;52.382;9.752;2023-02-01T17:02:50;12.87;;;3.33;;
9467;SDS011;4772;52.382;9.752;2023-02-01T17:05:16;9.40;;;2.90;;
9467;SDS011;4772;52.382;9.752;2023-02-01T17:07:41;8.47;;;2.87;;
9467;SDS011;4772;52.382;9.752;2023-02-01T17:10:12;13.63;;;3.10;;
9467;SDS011;4772;52.382;9.752;2023-02-01T17:12:43;15.60;;;3.83;;
9467;SDS011;4772;52.382;9.752;2023-02-01T17:15:10;12.23;;;2.73;;
9467;SDS011;4772;52.382;9.752;2023-02-01T17:17:38;14.23;;;3.70;;